Accueil
METAR-TAF:

METAR-TAF

Aéroports :

Nakashibetsu, Japon

latitude: 43-34N, longitude: 144-58E, altitude: 66 m

Observation

Le bulletin a été fait il y a 12 minutes, à 03:00 UTC
Vent 8 kt de est/nord-est, variant entre nord/nord-est et est
Température 15°C
Humidité 55%
Pression 1010 hPa
Visibilité 10 km ou plus
Quelques nuages à une hauteur de 2500 ft
Nuages fragmentés à une hauteur de 4500 ft

METAR: RJCN 270300Z 07008KT 030V100 9999 FEW025 BKN045 15/06 Q1010

Heure: 12:12 (03:12 UTC)


TAF: absent

Observations et prévisions météorologiques de plus de 4000 aéroports (messages METAR et TAF).

Les stations disponibles sont représentées par des disques jaunes et rouges sur la carte.

Passer la souris dessus pour voir le nom de la station.

Cliquer dessus pour voir les observations et prévisions météorologiques.

Pour changer de carte: cliquez sur les boutons verts avec une croix noire pour zoomer, sur le bouton vert avec un tiret pour effectuer un zoom arrière, ou sur les flèches vertes pour les cartes adjacentes.


METAR-TAF: